sensor_id;sensor_type;location;lat;lon;timestamp;P1;durP1;ratioP1;P2;durP2;ratioP2
37445;SDS011;23307;51.136;14.942;2022-11-28T00:01:02;32.23;;;20.33;;
37445;SDS011;23307;51.136;14.942;2022-11-28T00:03:30;28.63;;;18.47;;
37445;SDS011;23307;51.136;14.942;2022-11-28T00:05:55;35.50;;;21.13;;
37445;SDS011;23307;51.136;14.942;2022-11-28T00:08:21;33.50;;;21.00;;
37445;SDS011;23307;51.136;14.942;2022-11-28T00:10:46;30.83;;;20.47;;
37445;SDS011;23307;51.136;14.942;2022-11-28T00:13:12;33.70;;;21.50;;
37445;SDS011;23307;51.136;14.942;2022-11-28T00:15:38;34.23;;;21.77;;
37445;SDS011;23307;51.136;14.942;2022-11-28T00:18:03;37.17;;;21.83;;
37445;SDS011;23307;51.136;14.942;2022-11-28T00:20:30;31.90;;;21.07;;
37445;SDS011;23307;51.136;14.942;2022-11-28T00:22:56;35.10;;;21.60;;
37445;SDS011;23307;51.136;14.942;2022-11-28T00:25:21;38.33;;;22.03;;
37445;SDS011;23307;51.136;14.942;2022-11-28T00:27:47;35.27;;;21.63;;
37445;SDS011;23307;51.136;14.942;2022-11-28T00:30:12;35.27;;;21.40;;
37445;SDS011;23307;51.136;14.942;2022-11-28T00:32:38;30.53;;;20.83;;
37445;SDS011;23307;51.136;14.942;2022-11-28T00:35:04;33.30;;;21.60;;
37445;SDS011;23307;51.136;14.942;2022-11-28T00:37:30;34.60;;;20.60;;
37445;SDS011;23307;51.136;14.942;2022-11-28T00:39:55;36.23;;;22.20;;
37445;SDS011;23307;51.136;14.942;2022-11-28T00:42:21;36.67;;;23.13;;
37445;SDS011;23307;51.136;14.942;2022-11-28T00:44:49;36.27;;;21.27;;
37445;SDS011;23307;51.136;14.942;2022-11-28T00:47:15;34.80;;;22.43;;
37445;SDS011;23307;51.136;14.942;2022-11-28T00:49:41;36.43;;;22.53;;
37445;SDS011;23307;51.136;14.942;2022-11-28T00:52:06;38.17;;;24.07;;
37445;SDS011;23307;51.136;14.942;2022-11-28T00:54:32;32.63;;;21.83;;
37445;SDS011;23307;51.136;14.942;2022-11-28T00:56:57;37.50;;;23.33;;
37445;SDS011;23307;51.136;14.942;2022-11-28T00:59:23;33.60;;;21.83;;
37445;SDS011;23307;51.136;14.942;2022-11-28T01:01:48;34.33;;;21.77;;
37445;SDS011;23307;51.136;14.942;2022-11-28T01:04:15;39.50;;;23.03;;
37445;SDS011;23307;51.136;14.942;2022-11-28T01:06:45;40.10;;;23.27;;
37445;SDS011;23307;51.136;14.942;2022-11-28T01:09:13;39.30;;;23.77;;
37445;SDS011;23307;51.136;14.942;2022-11-28T01:11:41;36.00;;;23.10;;
37445;SDS011;23307;51.136;14.942;2022-11-28T01:14:08;35.93;;;22.33;;
37445;SDS011;23307;51.136;14.942;2022-11-28T01:16:34;36.73;;;23.47;;
37445;SDS011;23307;51.136;14.942;2022-11-28T01:19:00;35.03;;;23.67;;
37445;SDS011;23307;51.136;14.942;2022-11-28T01:21:25;37.13;;;22.60;;
37445;SDS011;23307;51.136;14.942;2022-11-28T01:23:51;38.10;;;23.40;;
37445;SDS011;23307;51.136;14.942;2022-11-28T01:26:22;35.80;;;22.37;;
37445;SDS011;23307;51.136;14.942;2022-11-28T01:28:49;38.07;;;23.87;;
37445;SDS011;23307;51.136;14.942;2022-11-28T01:31:15;35.10;;;22.70;;
37445;SDS011;23307;51.136;14.942;2022-11-28T01:33:42;38.97;;;23.47;;
37445;SDS011;23307;51.136;14.942;2022-11-28T01:36:09;36.20;;;23.40;;
37445;SDS011;23307;51.136;14.942;2022-11-28T01:38:35;37.70;;;24.00;;
37445;SDS011;23307;51.136;14.942;2022-11-28T01:41:01;36.20;;;23.93;;
37445;SDS011;23307;51.136;14.942;2022-11-28T01:43:27;37.77;;;23.70;;
37445;SDS011;23307;51.136;14.942;2022-11-28T01:45:53;36.97;;;23.37;;
37445;SDS011;23307;51.136;14.942;2022-11-28T01:48:25;34.67;;;22.57;;
37445;SDS011;23307;51.136;14.942;2022-11-28T01:50:57;35.57;;;23.37;;
37445;SDS011;23307;51.136;14.942;2022-11-28T01:53:27;37.87;;;23.37;;
37445;SDS011;23307;51.136;14.942;2022-11-28T01:55:55;37.67;;;23.53;;
37445;SDS011;23307;51.136;14.942;2022-11-28T01:58:42;33.40;;;22.90;;
37445;SDS011;23307;51.136;14.942;2022-11-28T02:01:11;38.47;;;23.90;;
37445;SDS011;23307;51.136;14.942;2022-11-28T02:03:41;38.03;;;23.97;;
37445;SDS011;23307;51.136;14.942;2022-11-28T02:06:09;35.30;;;22.30;;
37445;SDS011;23307;51.136;14.942;2022-11-28T02:08:36;33.73;;;23.10;;
37445;SDS011;23307;51.136;14.942;2022-11-28T02:11:23;34.33;;;22.77;;
37445;SDS011;23307;51.136;14.942;2022-11-28T02:16:36;33.63;;;20.87;;
37445;SDS011;23307;51.136;14.942;2022-11-28T02:22:11;30.23;;;20.00;;
37445;SDS011;23307;51.136;14.942;2022-11-28T02:24:53;35.23;;;20.90;;
37445;SDS011;23307;51.136;14.942;2022-11-28T02:30:16;29.97;;;19.47;;
37445;SDS011;23307;51.136;14.942;2022-11-28T02:41:42;27.13;;;17.80;;
37445;SDS011;23307;51.136;14.942;2022-11-28T02:44:19;28.57;;;18.97;;
37445;SDS011;23307;51.136;14.942;2022-11-28T02:49:36;27.00;;;18.27;;
37445;SDS011;23307;51.136;14.942;2022-11-28T02:54:36;27.77;;;17.87;;
37445;SDS011;23307;51.136;14.942;2022-11-28T02:57:03;26.50;;;17.40;;
37445;SDS011;23307;51.136;14.942;2022-11-28T03:02:01;25.37;;;16.80;;
37445;SDS011;23307;51.136;14.942;2022-11-28T03:07:02;26.63;;;16.53;;
37445;SDS011;23307;51.136;14.942;2022-11-28T03:15:21;25.67;;;17.37;;
37445;SDS011;23307;51.136;14.942;2022-11-28T03:20:32;22.10;;;15.27;;
37445;SDS011;23307;51.136;14.942;2022-11-28T03:23:16;24.13;;;15.83;;
37445;SDS011;23307;51.136;14.942;2022-11-28T03:28:37;27.97;;;17.07;;
37445;SDS011;23307;51.136;14.942;2022-11-28T03:31:10;26.53;;;16.87;;
37445;SDS011;23307;51.136;14.942;2022-11-28T03:33:47;26.63;;;17.20;;
37445;SDS011;23307;51.136;14.942;2022-11-28T03:36:37;27.57;;;16.30;;
37445;SDS011;23307;51.136;14.942;2022-11-28T03:39:27;24.70;;;17.20;;
37445;SDS011;23307;51.136;14.942;2022-11-28T03:42:02;26.03;;;16.73;;
37445;SDS011;23307;51.136;14.942;2022-11-28T03:44:44;28.33;;;17.27;;
37445;SDS011;23307;51.136;14.942;2022-11-28T03:47:14;30.17;;;17.80;;
37445;SDS011;23307;51.136;14.942;2022-11-28T03:49:41;31.00;;;18.23;;
37445;SDS011;23307;51.136;14.942;2022-11-28T03:52:12;29.87;;;18.40;;
37445;SDS011;23307;51.136;14.942;2022-11-28T04:00:23;32.43;;;18.93;;
37445;SDS011;23307;51.136;14.942;2022-11-28T04:03:10;33.63;;;19.63;;
37445;SDS011;23307;51.136;14.942;2022-11-28T04:05:58;32.87;;;19.97;;
37445;SDS011;23307;51.136;14.942;2022-11-28T04:08:30;30.67;;;19.40;;
37445;SDS011;23307;51.136;14.942;2022-11-28T04:11:06;31.70;;;20.30;;
37445;SDS011;23307;51.136;14.942;2022-11-28T04:16:09;30.27;;;19.87;;
37445;SDS011;23307;51.136;14.942;2022-11-28T04:18:53;29.87;;;20.00;;
37445;SDS011;23307;51.136;14.942;2022-11-28T04:24:24;30.93;;;20.53;;
37445;SDS011;23307;51.136;14.942;2022-11-28T04:26:55;31.87;;;20.37;;
37445;SDS011;23307;51.136;14.942;2022-11-28T04:29:25;31.40;;;20.43;;
37445;SDS011;23307;51.136;14.942;2022-11-28T04:31:55;28.37;;;19.40;;
37445;SDS011;23307;51.136;14.942;2022-11-28T04:34:22;31.97;;;20.20;;
37445;SDS011;23307;51.136;14.942;2022-11-28T04:36:50;30.57;;;19.80;;
37445;SDS011;23307;51.136;14.942;2022-11-28T04:39:19;30.13;;;18.60;;
37445;SDS011;23307;51.136;14.942;2022-11-28T04:41:51;26.47;;;18.60;;
37445;SDS011;23307;51.136;14.942;2022-11-28T04:47:21;32.30;;;19.53;;
37445;SDS011;23307;51.136;14.942;2022-11-28T04:49:48;31.37;;;20.20;;
37445;SDS011;23307;51.136;14.942;2022-11-28T04:52:22;33.37;;;20.60;;
37445;SDS011;23307;51.136;14.942;2022-11-28T04:55:07;33.07;;;21.73;;
37445;SDS011;23307;51.136;14.942;2022-11-28T04:57:44;33.17;;;21.77;;
37445;SDS011;23307;51.136;14.942;2022-11-28T05:00:15;35.43;;;22.30;;
37445;SDS011;23307;51.136;14.942;2022-11-28T05:02:43;36.33;;;22.83;;
37445;SDS011;23307;51.136;14.942;2022-11-28T05:05:11;36.47;;;22.77;;
37445;SDS011;23307;51.136;14.942;2022-11-28T05:07:39;32.63;;;21.57;;
37445;SDS011;23307;51.136;14.942;2022-11-28T05:10:05;35.23;;;22.17;;
37445;SDS011;23307;51.136;14.942;2022-11-28T05:12:31;38.93;;;23.93;;
37445;SDS011;23307;51.136;14.942;2022-11-28T05:14:57;35.30;;;22.83;;
37445;SDS011;23307;51.136;14.942;2022-11-28T05:17:22;36.27;;;24.00;;
37445;SDS011;23307;51.136;14.942;2022-11-28T05:19:48;36.87;;;24.07;;
37445;SDS011;23307;51.136;14.942;2022-11-28T05:22:13;36.90;;;24.20;;
37445;SDS011;23307;51.136;14.942;2022-11-28T05:24:39;37.60;;;23.17;;
37445;SDS011;23307;51.136;14.942;2022-11-28T05:27:04;36.40;;;23.03;;
37445;SDS011;23307;51.136;14.942;2022-11-28T05:29:31;36.53;;;22.93;;
37445;SDS011;23307;51.136;14.942;2022-11-28T05:31:57;35.80;;;23.27;;
37445;SDS011;23307;51.136;14.942;2022-11-28T05:34:23;35.33;;;22.50;;
37445;SDS011;23307;51.136;14.942;2022-11-28T05:36:48;34.83;;;23.37;;
37445;SDS011;23307;51.136;14.942;2022-11-28T05:39:14;35.90;;;22.73;;
37445;SDS011;23307;51.136;14.942;2022-11-28T05:41:39;35.47;;;22.60;;
37445;SDS011;23307;51.136;14.942;2022-11-28T05:44:05;38.07;;;24.73;;
37445;SDS011;23307;51.136;14.942;2022-11-28T05:46:31;38.20;;;23.40;;
37445;SDS011;23307;51.136;14.942;2022-11-28T05:48:56;34.60;;;22.73;;
37445;SDS011;23307;51.136;14.942;2022-11-28T05:51:22;35.00;;;22.77;;
37445;SDS011;23307;51.136;14.942;2022-11-28T05:53:48;36.23;;;23.23;;
37445;SDS011;23307;51.136;14.942;2022-11-28T05:56:15;37.50;;;23.73;;
37445;SDS011;23307;51.136;14.942;2022-11-28T05:58:42;38.47;;;23.30;;
37445;SDS011;23307;51.136;14.942;2022-11-28T06:01:12;37.80;;;23.23;;
37445;SDS011;23307;51.136;14.942;2022-11-28T06:03:45;35.50;;;22.30;;
37445;SDS011;23307;51.136;14.942;2022-11-28T06:06:12;37.97;;;22.17;;
37445;SDS011;23307;51.136;14.942;2022-11-28T06:08:45;34.63;;;22.17;;
37445;SDS011;23307;51.136;14.942;2022-11-28T06:11:12;33.70;;;22.07;;
37445;SDS011;23307;51.136;14.942;2022-11-28T06:13:39;34.03;;;21.97;;
37445;SDS011;23307;51.136;14.942;2022-11-28T06:16:08;37.23;;;23.07;;
37445;SDS011;23307;51.136;14.942;2022-11-28T06:18:35;32.83;;;20.63;;
37445;SDS011;23307;51.136;14.942;2022-11-28T06:21:02;36.07;;;21.87;;
37445;SDS011;23307;51.136;14.942;2022-11-28T06:23:29;35.03;;;21.17;;
37445;SDS011;23307;51.136;14.942;2022-11-28T06:25:55;32.17;;;20.63;;
37445;SDS011;23307;51.136;14.942;2022-11-28T06:28:20;33.40;;;19.73;;
37445;SDS011;23307;51.136;14.942;2022-11-28T06:30:46;32.83;;;19.57;;
37445;SDS011;23307;51.136;14.942;2022-11-28T06:33:11;32.93;;;19.57;;
37445;SDS011;23307;51.136;14.942;2022-11-28T06:35:37;29.73;;;19.00;;
37445;SDS011;23307;51.136;14.942;2022-11-28T06:38:02;29.30;;;19.00;;
37445;SDS011;23307;51.136;14.942;2022-11-28T06:40:28;30.60;;;19.27;;
37445;SDS011;23307;51.136;14.942;2022-11-28T06:42:54;30.43;;;18.90;;
37445;SDS011;23307;51.136;14.942;2022-11-28T06:45:19;26.27;;;18.13;;
37445;SDS011;23307;51.136;14.942;2022-11-28T06:47:45;31.50;;;18.70;;
37445;SDS011;23307;51.136;14.942;2022-11-28T06:50:10;30.93;;;18.80;;
37445;SDS011;23307;51.136;14.942;2022-11-28T06:52:36;33.40;;;19.13;;
37445;SDS011;23307;51.136;14.942;2022-11-28T06:55:01;30.90;;;19.43;;
37445;SDS011;23307;51.136;14.942;2022-11-28T06:57:27;29.57;;;18.63;;
37445;SDS011;23307;51.136;14.942;2022-11-28T06:59:53;29.20;;;18.17;;
37445;SDS011;23307;51.136;14.942;2022-11-28T07:02:18;25.30;;;16.93;;
37445;SDS011;23307;51.136;14.942;2022-11-28T07:04:44;29.37;;;17.50;;
37445;SDS011;23307;51.136;14.942;2022-11-28T07:07:09;27.37;;;17.73;;
37445;SDS011;23307;51.136;14.942;2022-11-28T07:09:35;28.03;;;17.10;;
37445;SDS011;23307;51.136;14.942;2022-11-28T07:12:00;31.70;;;20.53;;
37445;SDS011;23307;51.136;14.942;2022-11-28T07:14:26;25.30;;;18.43;;
37445;SDS011;23307;51.136;14.942;2022-11-28T07:16:52;25.87;;;18.10;;
37445;SDS011;23307;51.136;14.942;2022-11-28T07:19:18;26.13;;;18.07;;
37445;SDS011;23307;51.136;14.942;2022-11-28T07:21:47;27.47;;;18.47;;
37445;SDS011;23307;51.136;14.942;2022-11-28T07:24:14;25.90;;;16.20;;
37445;SDS011;23307;51.136;14.942;2022-11-28T07:26:40;27.87;;;18.67;;
37445;SDS011;23307;51.136;14.942;2022-11-28T07:29:06;28.93;;;18.63;;
37445;SDS011;23307;51.136;14.942;2022-11-28T07:31:31;28.47;;;19.20;;
37445;SDS011;23307;51.136;14.942;2022-11-28T07:33:58;25.53;;;17.40;;
37445;SDS011;23307;51.136;14.942;2022-11-28T07:36:26;26.13;;;18.03;;
37445;SDS011;23307;51.136;14.942;2022-11-28T07:38:53;26.80;;;16.93;;
37445;SDS011;23307;51.136;14.942;2022-11-28T07:41:20;25.77;;;16.77;;
37445;SDS011;23307;51.136;14.942;2022-11-28T07:43:47;24.57;;;16.87;;
37445;SDS011;23307;51.136;14.942;2022-11-28T07:46:15;25.50;;;16.23;;
37445;SDS011;23307;51.136;14.942;2022-11-28T07:48:41;24.23;;;16.10;;
37445;SDS011;23307;51.136;14.942;2022-11-28T07:51:08;22.60;;;15.47;;
37445;SDS011;23307;51.136;14.942;2022-11-28T07:53:36;29.23;;;16.53;;
37445;SDS011;23307;51.136;14.942;2022-11-28T07:56:02;22.57;;;15.13;;
37445;SDS011;23307;51.136;14.942;2022-11-28T07:58:32;23.90;;;16.40;;
37445;SDS011;23307;51.136;14.942;2022-11-28T08:00:59;23.03;;;16.50;;
37445;SDS011;23307;51.136;14.942;2022-11-28T08:03:31;24.90;;;15.67;;
37445;SDS011;23307;51.136;14.942;2022-11-28T08:05:58;24.30;;;16.63;;
37445;SDS011;23307;51.136;14.942;2022-11-28T08:08:25;26.53;;;16.93;;
37445;SDS011;23307;51.136;14.942;2022-11-28T08:10:50;25.27;;;17.47;;
37445;SDS011;23307;51.136;14.942;2022-11-28T08:13:20;28.37;;;17.43;;
37445;SDS011;23307;51.136;14.942;2022-11-28T08:15:46;25.37;;;17.60;;
37445;SDS011;23307;51.136;14.942;2022-11-28T08:18:11;30.00;;;19.97;;
37445;SDS011;23307;51.136;14.942;2022-11-28T08:20:37;27.50;;;18.43;;
37445;SDS011;23307;51.136;14.942;2022-11-28T08:23:03;30.97;;;19.57;;
37445;SDS011;23307;51.136;14.942;2022-11-28T08:25:28;31.60;;;19.50;;
37445;SDS011;23307;51.136;14.942;2022-11-28T08:27:54;25.80;;;17.70;;
37445;SDS011;23307;51.136;14.942;2022-11-28T08:30:19;32.10;;;19.50;;
37445;SDS011;23307;51.136;14.942;2022-11-28T08:32:45;30.43;;;20.43;;
37445;SDS011;23307;51.136;14.942;2022-11-28T08:35:10;30.83;;;19.10;;
37445;SDS011;23307;51.136;14.942;2022-11-28T08:37:36;28.40;;;19.20;;
37445;SDS011;23307;51.136;14.942;2022-11-28T08:40:01;30.67;;;19.40;;
37445;SDS011;23307;51.136;14.942;2022-11-28T08:42:27;33.00;;;20.63;;
37445;SDS011;23307;51.136;14.942;2022-11-28T08:44:53;46.00;;;30.40;;
37445;SDS011;23307;51.136;14.942;2022-11-28T08:47:18;32.20;;;21.70;;
37445;SDS011;23307;51.136;14.942;2022-11-28T08:49:44;30.17;;;20.27;;
37445;SDS011;23307;51.136;14.942;2022-11-28T08:52:10;30.93;;;21.13;;
37445;SDS011;23307;51.136;14.942;2022-11-28T08:54:35;32.77;;;22.10;;
37445;SDS011;23307;51.136;14.942;2022-11-28T08:57:01;32.17;;;20.97;;
37445;SDS011;23307;51.136;14.942;2022-11-28T08:59:26;36.63;;;21.90;;
37445;SDS011;23307;51.136;14.942;2022-11-28T09:01:52;34.33;;;20.73;;
37445;SDS011;23307;51.136;14.942;2022-11-28T09:04:18;33.23;;;21.67;;
37445;SDS011;23307;51.136;14.942;2022-11-28T09:06:44;32.30;;;22.53;;
37445;SDS011;23307;51.136;14.942;2022-11-28T09:09:10;37.53;;;22.43;;
37445;SDS011;23307;51.136;14.942;2022-11-28T09:11:36;32.57;;;20.67;;
37445;SDS011;23307;51.136;14.942;2022-11-28T09:14:02;33.87;;;21.33;;
37445;SDS011;23307;51.136;14.942;2022-11-28T09:16:28;33.37;;;20.47;;
37445;SDS011;23307;51.136;14.942;2022-11-28T09:18:54;28.73;;;18.73;;
37445;SDS011;23307;51.136;14.942;2022-11-28T09:21:21;35.50;;;19.57;;
37445;SDS011;23307;51.136;14.942;2022-11-28T09:23:47;28.00;;;19.67;;
37445;SDS011;23307;51.136;14.942;2022-11-28T09:26:14;30.60;;;19.57;;
37445;SDS011;23307;51.136;14.942;2022-11-28T09:28:44;26.90;;;20.27;;
37445;SDS011;23307;51.136;14.942;2022-11-28T09:31:10;31.07;;;20.47;;
37445;SDS011;23307;51.136;14.942;2022-11-28T09:33:36;30.23;;;20.67;;
37445;SDS011;23307;51.136;14.942;2022-11-28T09:36:03;28.63;;;19.40;;
37445;SDS011;23307;51.136;14.942;2022-11-28T09:38:32;32.23;;;20.37;;
37445;SDS011;23307;51.136;14.942;2022-11-28T09:40:59;33.23;;;20.83;;
37445;SDS011;23307;51.136;14.942;2022-11-28T09:43:33;33.63;;;20.60;;
37445;SDS011;23307;51.136;14.942;2022-11-28T09:46:06;33.07;;;22.30;;
37445;SDS011;23307;51.136;14.942;2022-11-28T09:48:37;31.00;;;21.40;;
37445;SDS011;23307;51.136;14.942;2022-11-28T09:51:13;35.07;;;22.37;;
37445;SDS011;23307;51.136;14.942;2022-11-28T09:54:22;32.23;;;22.00;;
37445;SDS011;23307;51.136;14.942;2022-11-28T09:56:47;36.83;;;22.47;;
37445;SDS011;23307;51.136;14.942;2022-11-28T09:59:18;34.63;;;23.17;;
37445;SDS011;23307;51.136;14.942;2022-11-28T10:01:55;36.87;;;23.23;;
37445;SDS011;23307;51.136;14.942;2022-11-28T10:10:27;45.80;;;29.53;;
37445;SDS011;23307;51.136;14.942;2022-11-28T10:21:03;54.23;;;33.90;;
37445;SDS011;23307;51.136;14.942;2022-11-28T10:23:47;40.87;;;27.27;;
37445;SDS011;23307;51.136;14.942;2022-11-28T10:26:17;42.47;;;26.13;;
37445;SDS011;23307;51.136;14.942;2022-11-28T10:28:53;38.27;;;26.33;;
37445;SDS011;23307;51.136;14.942;2022-11-28T10:31:35;36.70;;;23.47;;
37445;SDS011;23307;51.136;14.942;2022-11-28T10:37:45;38.90;;;24.67;;
37445;SDS011;23307;51.136;14.942;2022-11-28T10:39:48;35.23;;;22.50;;
37445;SDS011;23307;51.136;14.942;2022-11-28T10:45:06;31.67;;;20.97;;
37445;SDS011;23307;51.136;14.942;2022-11-28T10:53:40;26.33;;;19.23;;
37445;SDS011;23307;51.136;14.942;2022-11-28T11:02:48;25.30;;;17.00;;
37445;SDS011;23307;51.136;14.942;2022-11-28T11:05:07;24.93;;;17.60;;
37445;SDS011;23307;51.136;14.942;2022-11-28T11:07:37;24.40;;;16.73;;
37445;SDS011;23307;51.136;14.942;2022-11-28T11:12:43;25.83;;;17.67;;
37445;SDS011;23307;51.136;14.942;2022-11-28T11:15:14;25.67;;;17.67;;
37445;SDS011;23307;51.136;14.942;2022-11-28T11:17:41;27.53;;;17.10;;
37445;SDS011;23307;51.136;14.942;2022-11-28T11:23:01;26.80;;;17.77;;
37445;SDS011;23307;51.136;14.942;2022-11-28T11:25:36;25.30;;;16.23;;
37445;SDS011;23307;51.136;14.942;2022-11-28T11:30:59;22.27;;;14.13;;
37445;SDS011;23307;51.136;14.942;2022-11-28T11:33:29;21.47;;;15.03;;
37445;SDS011;23307;51.136;14.942;2022-11-28T11:35:58;20.60;;;14.30;;
37445;SDS011;23307;51.136;14.942;2022-11-28T11:38:27;21.00;;;14.20;;
37445;SDS011;23307;51.136;14.942;2022-11-28T11:40:54;21.40;;;15.20;;
37445;SDS011;23307;51.136;14.942;2022-11-28T11:45:57;23.67;;;15.60;;
37445;SDS011;23307;51.136;14.942;2022-11-28T11:48:44;22.30;;;15.53;;
37445;SDS011;23307;51.136;14.942;2022-11-28T11:51:30;22.03;;;14.33;;
37445;SDS011;23307;51.136;14.942;2022-11-28T11:56:37;20.00;;;13.47;;
37445;SDS011;23307;51.136;14.942;2022-11-28T11:59:10;23.17;;;14.67;;
37445;SDS011;23307;51.136;14.942;2022-11-28T12:01:41;18.97;;;12.23;;
37445;SDS011;23307;51.136;14.942;2022-11-28T12:04:18;17.97;;;11.50;;
37445;SDS011;23307;51.136;14.942;2022-11-28T12:06:50;14.33;;;9.00;;
37445;SDS011;23307;51.136;14.942;2022-11-28T12:09:30;14.20;;;8.97;;
37445;SDS011;23307;51.136;14.942;2022-11-28T12:12:15;11.33;;;8.27;;
37445;SDS011;23307;51.136;14.942;2022-11-28T12:14:45;12.77;;;9.70;;
37445;SDS011;23307;51.136;14.942;2022-11-28T12:17:24;13.67;;;9.40;;
37445;SDS011;23307;51.136;14.942;2022-11-28T12:25:07;25.20;;;13.17;;
37445;SDS011;23307;51.136;14.942;2022-11-28T12:36:49;22.73;;;13.87;;
37445;SDS011;23307;51.136;14.942;2022-11-28T12:39:14;25.47;;;16.20;;
37445;SDS011;23307;51.136;14.942;2022-11-28T12:41:52;23.87;;;15.77;;
37445;SDS011;23307;51.136;14.942;2022-11-28T12:44:42;16.27;;;10.50;;
37445;SDS011;23307;51.136;14.942;2022-11-28T12:47:22;14.27;;;10.30;;
37445;SDS011;23307;51.136;14.942;2022-11-28T12:50:15;14.93;;;9.87;;
37445;SDS011;23307;51.136;14.942;2022-11-28T12:55:37;15.13;;;10.33;;
37445;SDS011;23307;51.136;14.942;2022-11-28T12:58:16;13.67;;;9.87;;
37445;SDS011;23307;51.136;14.942;2022-11-28T13:01:06;12.53;;;9.67;;
37445;SDS011;23307;51.136;14.942;2022-11-28T13:03:59;15.47;;;10.90;;
37445;SDS011;23307;51.136;14.942;2022-11-28T13:06:49;15.97;;;11.10;;
37445;SDS011;23307;51.136;14.942;2022-11-28T13:09:30;20.87;;;13.20;;
37445;SDS011;23307;51.136;14.942;2022-11-28T13:14:50;21.67;;;13.60;;
37445;SDS011;23307;51.136;14.942;2022-11-28T13:20:15;18.57;;;12.70;;
37445;SDS011;23307;51.136;14.942;2022-11-28T13:23:02;20.67;;;14.33;;
37445;SDS011;23307;51.136;14.942;2022-11-28T13:25:44;20.20;;;14.17;;
37445;SDS011;23307;51.136;14.942;2022-11-28T13:28:20;20.63;;;14.03;;
37445;SDS011;23307;51.136;14.942;2022-11-28T13:33:50;28.47;;;17.67;;
37445;SDS011;23307;51.136;14.942;2022-11-28T13:36:23;27.77;;;17.17;;
37445;SDS011;23307;51.136;14.942;2022-11-28T13:47:45;29.67;;;17.90;;
37445;SDS011;23307;51.136;14.942;2022-11-28T13:52:58;28.97;;;18.03;;
37445;SDS011;23307;51.136;14.942;2022-11-28T13:55:48;24.93;;;16.30;;
37445;SDS011;23307;51.136;14.942;2022-11-28T13:58:15;25.23;;;15.53;;
37445;SDS011;23307;51.136;14.942;2022-11-28T14:03:52;21.80;;;15.20;;
37445;SDS011;23307;51.136;14.942;2022-11-28T14:25:43;24.03;;;15.57;;
37445;SDS011;23307;51.136;14.942;2022-11-28T14:28:15;25.53;;;16.73;;
37445;SDS011;23307;51.136;14.942;2022-11-28T14:30:47;27.50;;;17.97;;
37445;SDS011;23307;51.136;14.942;2022-11-28T14:33:22;25.57;;;17.37;;
37445;SDS011;23307;51.136;14.942;2022-11-28T14:43:30;24.67;;;16.73;;
37445;SDS011;23307;51.136;14.942;2022-11-28T14:48:40;23.53;;;15.20;;
37445;SDS011;23307;51.136;14.942;2022-11-28T14:54:34;25.57;;;17.53;;
37445;SDS011;23307;51.136;14.942;2022-11-28T14:56:59;25.13;;;16.83;;
37445;SDS011;23307;51.136;14.942;2022-11-28T14:59:30;23.90;;;16.40;;
37445;SDS011;23307;51.136;14.942;2022-11-28T15:07:26;23.23;;;15.93;;
37445;SDS011;23307;51.136;14.942;2022-11-28T15:13:10;25.00;;;16.90;;
37445;SDS011;23307;51.136;14.942;2022-11-28T15:15:46;27.03;;;17.80;;
37445;SDS011;23307;51.136;14.942;2022-11-28T15:18:13;29.70;;;18.63;;
37445;SDS011;23307;51.136;14.942;2022-11-28T15:20:41;30.10;;;20.33;;
37445;SDS011;23307;51.136;14.942;2022-11-28T15:23:29;29.13;;;19.47;;
37445;SDS011;23307;51.136;14.942;2022-11-28T15:25:56;35.37;;;21.30;;
37445;SDS011;23307;51.136;14.942;2022-11-28T15:28:24;33.53;;;21.53;;
37445;SDS011;23307;51.136;14.942;2022-11-28T15:30:52;32.83;;;21.97;;
37445;SDS011;23307;51.136;14.942;2022-11-28T15:33:20;31.57;;;21.93;;
37445;SDS011;23307;51.136;14.942;2022-11-28T15:38:21;29.83;;;20.73;;
37445;SDS011;23307;51.136;14.942;2022-11-28T15:40:48;32.30;;;21.63;;
37445;SDS011;23307;51.136;14.942;2022-11-28T15:43:14;31.63;;;20.43;;
37445;SDS011;23307;51.136;14.942;2022-11-28T15:45:40;29.73;;;20.07;;
37445;SDS011;23307;51.136;14.942;2022-11-28T15:48:46;32.17;;;19.97;;
37445;SDS011;23307;51.136;14.942;2022-11-28T15:51:00;28.77;;;20.33;;
37445;SDS011;23307;51.136;14.942;2022-11-28T15:53:27;30.30;;;21.07;;
37445;SDS011;23307;51.136;14.942;2022-11-28T15:56:05;31.67;;;22.57;;
37445;SDS011;23307;51.136;14.942;2022-11-28T15:58:36;30.97;;;21.50;;
37445;SDS011;23307;51.136;14.942;2022-11-28T16:03:33;33.73;;;22.07;;
37445;SDS011;23307;51.136;14.942;2022-11-28T16:06:04;34.93;;;21.47;;
37445;SDS011;23307;51.136;14.942;2022-11-28T16:08:37;33.97;;;22.47;;
37445;SDS011;23307;51.136;14.942;2022-11-28T16:11:24;29.97;;;21.93;;
37445;SDS011;23307;51.136;14.942;2022-11-28T16:13:52;33.80;;;22.77;;
37445;SDS011;23307;51.136;14.942;2022-11-28T16:16:21;33.87;;;23.43;;
37445;SDS011;23307;51.136;14.942;2022-11-28T16:18:52;39.73;;;24.97;;
37445;SDS011;23307;51.136;14.942;2022-11-28T16:21:25;37.03;;;24.50;;
37445;SDS011;23307;51.136;14.942;2022-11-28T16:23:54;37.10;;;24.13;;
37445;SDS011;23307;51.136;14.942;2022-11-28T16:26:27;39.63;;;25.97;;
37445;SDS011;23307;51.136;14.942;2022-11-28T16:31:31;40.67;;;26.40;;
37445;SDS011;23307;51.136;14.942;2022-11-28T16:33:58;44.53;;;27.23;;
37445;SDS011;23307;51.136;14.942;2022-11-28T16:39:08;46.43;;;30.57;;
37445;SDS011;23307;51.136;14.942;2022-11-28T16:41:40;47.67;;;30.23;;
37445;SDS011;23307;51.136;14.942;2022-11-28T16:44:28;50.33;;;32.47;;
37445;SDS011;23307;51.136;14.942;2022-11-28T16:46:54;56.80;;;33.83;;
37445;SDS011;23307;51.136;14.942;2022-11-28T16:49:38;47.17;;;30.43;;
37445;SDS011;23307;51.136;14.942;2022-11-28T16:54:45;52.60;;;31.97;;
37445;SDS011;23307;51.136;14.942;2022-11-28T16:57:15;49.33;;;31.33;;
37445;SDS011;23307;51.136;14.942;2022-11-28T16:59:43;46.10;;;30.67;;
37445;SDS011;23307;51.136;14.942;2022-11-28T17:02:13;50.40;;;31.90;;
37445;SDS011;23307;51.136;14.942;2022-11-28T17:04:42;46.20;;;30.00;;
37445;SDS011;23307;51.136;14.942;2022-11-28T17:07:10;40.53;;;28.03;;
37445;SDS011;23307;51.136;14.942;2022-11-28T17:09:38;44.90;;;30.30;;
37445;SDS011;23307;51.136;14.942;2022-11-28T17:12:06;39.67;;;26.87;;
37445;SDS011;23307;51.136;14.942;2022-11-28T17:14:35;39.37;;;27.13;;
37445;SDS011;23307;51.136;14.942;2022-11-28T17:17:04;44.77;;;28.70;;
37445;SDS011;23307;51.136;14.942;2022-11-28T17:19:36;49.80;;;30.30;;
37445;SDS011;23307;51.136;14.942;2022-11-28T17:22:01;54.10;;;32.40;;
37445;SDS011;23307;51.136;14.942;2022-11-28T17:24:31;56.40;;;34.37;;
37445;SDS011;23307;51.136;14.942;2022-11-28T17:26:58;54.33;;;34.30;;
37445;SDS011;23307;51.136;14.942;2022-11-28T17:29:24;60.87;;;36.47;;
37445;SDS011;23307;51.136;14.942;2022-11-28T17:31:50;54.53;;;34.27;;
37445;SDS011;23307;51.136;14.942;2022-11-28T17:34:20;56.47;;;33.43;;
37445;SDS011;23307;51.136;14.942;2022-11-28T17:36:47;49.63;;;33.20;;
37445;SDS011;23307;51.136;14.942;2022-11-28T17:39:14;53.50;;;34.47;;